La rose des vents
Données météo: Semaine 04/05/26 - 10/05/26 (S 19)
Date Horaire Temp. E. Hum. E. P.atmo. Pluie Vent Ø 1mn Direction Ensoleilleme Ev.Tr. Solaire P. de rosée Temp au vent Rafales
04/05/2026 00:00 13,7 °C 91 % 1016,8 hPa 0,0 mm 0,0 km/h (0 Bft) - - 0,00 h 0,000 mm 0 W/m² 12,2 °C 13,7 °C 0,0 km/h (0 Bft)
04/05/2026 01:00 13,5 °C 91 % 1016,8 hPa 0,0 mm 0,0 km/h (0 Bft) - - 0,00 h 0,000 mm 0 W/m² 12,1 °C 13,5 °C 0,0 km/h (0 Bft)
04/05/2026 02:00 13,3 °C 91 % 1016,4 hPa 0,0 mm 0,0 km/h (0 Bft) - - 0,00 h 0,000 mm 0 W/m² 11,9 °C 13,3 °C 0,0 km/h (0 Bft)
04/05/2026 03:00 13,2 °C 91 % 1015,8 hPa 0,0 mm 0,0 km/h (0 Bft) - - 0,00 h 0,000 mm 0 W/m² 11,8 °C 13,2 °C 0,0 km/h (0 Bft)
04/05/2026 04:00 13,3 °C 89 % 1015,8 hPa 0,0 mm 0,0 km/h (0 Bft) - - 0,00 h 0,000 mm 0 W/m² 11,7 °C 13,3 °C 0,0 km/h (0 Bft)
04/05/2026 05:00 13,7 °C 89 % 1015,9 hPa 0,0 mm 0,0 km/h (0 Bft) - - 0,00 h 0,000 mm 0 W/m² 11,9 °C 13,7 °C 0,0 km/h (0 Bft)
04/05/2026 06:00 13,8 °C 88 % 1015,7 hPa 0,0 mm 0,0 km/h (0 Bft) - - 0,00 h 0,000 mm 5 W/m² 11,9 °C 13,8 °C 0,0 km/h (0 Bft)
04/05/2026 07:00 14,0 °C 85 % 1015,6 hPa 0,0 mm 0,0 km/h (0 Bft) - - 0,00 h 0,000 mm 13 W/m² 11,5 °C 14,0 °C 0,0 km/h (0 Bft)
04/05/2026 08:00 14,4 °C 83 % 1016,3 hPa 0,0 mm 0,0 km/h (0 Bft) - - 0,00 h 0,000 mm 47 W/m² 11,6 °C 14,4 °C 0,0 km/h (0 Bft)
04/05/2026 09:00 15,3 °C 82 % 1016,5 hPa 0,0 mm 0,0 km/h (0 Bft) - - 0,00 h 0,025 mm 91 W/m² 12,1 °C 15,3 °C 0,0 km/h (0 Bft)
04/05/2026 10:00 16,3 °C 74 % 1016,1 hPa 0,0 mm 0,0 km/h (0 Bft) - - 0,00 h 0,051 mm 168 W/m² 11,7 °C 16,3 °C 0,0 km/h (0 Bft)
04/05/2026 11:00 18,3 °C 64 % 1015,8 hPa 0,0 mm 0,0 km/h (0 Bft) - - 0,00 h 0,102 mm 248 W/m² 11,4 °C 18,3 °C 0,0 km/h (0 Bft)
04/05/2026 12:00 19,6 °C 57 % 1015,8 hPa 0,0 mm 0,0 km/h (0 Bft) - - 0,03 h 0,152 mm 338 W/m² 10,7 °C 19,6 °C 0,0 km/h (0 Bft)
04/05/2026 13:00 20,3 °C 66 % 1015,6 hPa 0,0 mm 0,0 km/h (0 Bft) - - 0,58 h 0,203 mm 490 W/m² 13,7 °C 20,3 °C 0,0 km/h (0 Bft)
04/05/2026 14:00 21,5 °C 68 % 1015,2 hPa 0,0 mm 0,0 km/h (0 Bft) - - 0,73 h 0,305 mm 630 W/m² 15,3 °C 21,5 °C 0,0 km/h (0 Bft)
04/05/2026 15:00 20,3 °C 72 % 1014,8 hPa 0,0 mm 0,0 km/h (0 Bft) - - 0,42 h 0,381 mm 451 W/m² 15,0 °C 20,3 °C 0,0 km/h (0 Bft)
04/05/2026 16:00 18,8 °C 77 % 1014,5 hPa 0,0 mm 0,0 km/h (0 Bft) - - 0,10 h 0,254 mm 226 W/m² 14,7 °C 18,8 °C 0,0 km/h (0 Bft)
04/05/2026 17:00 16,9 °C 85 % 1014,6 hPa 0,0 mm 0,0 km/h (0 Bft) - - 0,00 h 0,127 mm 96 W/m² 14,3 °C 16,9 °C 0,0 km/h (0 Bft)
04/05/2026 18:00 15,7 °C 92 % 1014,5 hPa 0,4 mm 0,0 km/h (0 Bft) - - 0,00 h 0,051 mm 51 W/m² 14,3 °C 15,7 °C 0,0 km/h (0 Bft)
04/05/2026 19:00 15,2 °C 92 % 1014,4 hPa 1,8 mm 0,0 km/h (0 Bft) - - 0,00 h 0,025 mm 12 W/m² 14,0 °C 15,2 °C 0,0 km/h (0 Bft)
04/05/2026 20:00 14,5 °C 94 % 1014,3 hPa 1,0 mm 0,0 km/h (0 Bft) - - 0,00 h 0,000 mm 16 W/m² 13,6 °C 14,5 °C 0,0 km/h (0 Bft)
04/05/2026 21:00 14,0 °C 95 % 1014,5 hPa 1,2 mm 0,0 km/h (0 Bft) - - 0,00 h 0,000 mm 0 W/m² 13,3 °C 14,0 °C 0,0 km/h (0 Bft)
04/05/2026 22:00 13,5 °C 96 % 1014,5 hPa 0,6 mm 0,0 km/h (0 Bft) - - 0,00 h 0,000 mm 0 W/m² 12,9 °C 13,5 °C 0,0 km/h (0 Bft)
04/05/2026 23:00 13,2 °C 96 % 1013,9 hPa 0,4 mm 0,0 km/h (0 Bft) - - 0,00 h 0,000 mm 0 W/m² 12,6 °C 13,2 °C 0,0 km/h (0 Bft)
05/05/2026 00:00 13,1 °C 97 % 1012,8 hPa 0,6 mm 0,0 km/h (0 Bft) - - 0,00 h 0,000 mm 0 W/m² 12,6 °C 13,1 °C 0,0 km/h (0 Bft)
05/05/2026 01:00 13,3 °C 97 % 1012,3 hPa 3,4 mm 0,0 km/h (0 Bft) - - 0,00 h 0,000 mm 0 W/m² 12,8 °C 13,3 °C 0,0 km/h (0 Bft)
05/05/2026 02:00 13,2 °C 98 % 1011,6 hPa 4,4 mm 0,0 km/h (0 Bft) - - 0,00 h 0,000 mm 0 W/m² 12,9 °C 13,2 °C 0,0 km/h (0 Bft)
05/05/2026 03:00 13,0 °C 98 % 1011,1 hPa 5,0 mm 0,0 km/h (0 Bft) - - 0,00 h 0,000 mm 0 W/m² 12,7 °C 13,0 °C 0,0 km/h (0 Bft)
05/05/2026 04:00 12,9 °C 98 % 1010,2 hPa 0,0 mm 0,0 km/h (0 Bft) - - 0,00 h 0,000 mm 0 W/m² 12,6 °C 12,9 °C 0,0 km/h (0 Bft)
05/05/2026 05:00 13,0 °C 98 % 1009,8 hPa 0,0 mm 0,0 km/h (0 Bft) - - 0,00 h 0,000 mm 0 W/m² 12,7 °C 13,0 °C 0,0 km/h (0 Bft)
05/05/2026 06:00 12,9 °C 98 % 1009,6 hPa 0,0 mm 0,0 km/h (0 Bft) - - 0,00 h 0,000 mm 14 W/m² 12,6 °C 12,9 °C 0,0 km/h (0 Bft)
05/05/2026 07:00 13,3 °C 99 % 1009,8 hPa 0,0 mm 0,0 km/h (0 Bft) - - 0,00 h 0,000 mm 50 W/m² 13,1 °C 13,3 °C 0,0 km/h (0 Bft)
05/05/2026 08:00 14,3 °C 99 % 1010,4 hPa 0,0 mm 0,0 km/h (0 Bft) - - 0,03 h 0,025 mm 88 W/m² 14,1 °C 14,3 °C 0,0 km/h (0 Bft)
05/05/2026 09:00 14,5 °C 99 % 1010,7 hPa 0,0 mm 0,0 km/h (0 Bft) - - 0,00 h 0,051 mm 99 W/m² 14,4 °C 14,5 °C 0,0 km/h (0 Bft)
05/05/2026 10:00 14,8 °C 99 % 1011,0 hPa 0,6 mm 0,0 km/h (0 Bft) - - 0,00 h 0,051 mm 66 W/m² 14,6 °C 14,8 °C 0,0 km/h (0 Bft)
05/05/2026 11:00 15,3 °C 99 % 1011,4 hPa 0,6 mm 0,0 km/h (0 Bft) - - 0,10 h 0,025 mm 217 W/m² 15,1 °C 15,3 °C 0,0 km/h (0 Bft)
05/05/2026 12:00 16,6 °C 99 % 1011,3 hPa 0,0 mm 0,0 km/h (0 Bft) - - 0,13 h 0,102 mm 340 W/m² 16,5 °C 16,6 °C 0,0 km/h (0 Bft)
05/05/2026 13:00 16,8 °C 97 % 1011,2 hPa 0,0 mm 0,0 km/h (0 Bft) - - 0,05 h 0,178 mm 272 W/m² 16,3 °C 16,8 °C 0,0 km/h (0 Bft)
05/05/2026 14:00 17,7 °C 92 % 1011,1 hPa 0,2 mm 0,0 km/h (0 Bft) - - 0,12 h 0,152 mm 343 W/m² 16,3 °C 17,7 °C 0,0 km/h (0 Bft)
05/05/2026 15:00 17,6 °C 92 % 1010,9 hPa 0,0 mm 0,0 km/h (0 Bft) - - 0,10 h 0,203 mm 340 W/m² 16,2 °C 17,6 °C 0,0 km/h (0 Bft)
05/05/2026 16:00 18,9 °C 85 % 1010,5 hPa 0,0 mm 0,0 km/h (0 Bft) - - 0,72 h 0,178 mm 581 W/m² 16,2 °C 18,9 °C 0,0 km/h (0 Bft)
05/05/2026 17:00 20,1 °C 77 % 1010,4 hPa 0,0 mm 0,0 km/h (0 Bft) - - 0,85 h 0,330 mm 491 W/m² 16,0 °C 20,1 °C 0,0 km/h (0 Bft)
05/05/2026 18:00 19,5 °C 78 % 1010,3 hPa 0,0 mm 0,0 km/h (0 Bft) - - 0,53 h 0,279 mm 262 W/m² 15,6 °C 19,5 °C 0,0 km/h (0 Bft)
05/05/2026 19:00 17,4 °C 84 % 1010,4 hPa 0,0 mm 0,0 km/h (0 Bft) - - 0,03 h 0,152 mm 53 W/m² 14,6 °C 17,4 °C 0,0 km/h (0 Bft)
05/05/2026 20:00 15,9 °C 88 % 1010,3 hPa 0,0 mm 0,0 km/h (0 Bft) - - 0,00 h 0,025 mm 12 W/m² 14,0 °C 15,9 °C 0,0 km/h (0 Bft)
05/05/2026 21:00 14,8 °C 92 % 1010,3 hPa 0,0 mm 0,0 km/h (0 Bft) - - 0,00 h 0,000 mm 0 W/m² 13,6 °C 14,8 °C 0,0 km/h (0 Bft)
05/05/2026 22:00 14,7 °C 95 % 1010,7 hPa 0,0 mm 0,0 km/h (0 Bft) - - 0,00 h 0,000 mm 0 W/m² 13,9 °C 14,7 °C 0,0 km/h (0 Bft)
05/05/2026 23:00 14,6 °C 96 % 1010,4 hPa 1,0 mm 0,0 km/h (0 Bft) - - 0,00 h 0,000 mm 0 W/m² 14,0 °C 14,6 °C 0,0 km/h (0 Bft)
06/05/2026 00:00 14,4 °C 96 % 1010,1 hPa 9,0 mm 0,0 km/h (0 Bft) - - 0,00 h 0,000 mm 0 W/m² 13,8 °C 14,4 °C 0,0 km/h (0 Bft)
06/05/2026 01:00 12,9 °C 96 % 1008,8 hPa 1,2 mm 0,0 km/h (0 Bft) - - 0,00 h 0,000 mm 0 W/m² 12,3 °C 12,9 °C 0,0 km/h (0 Bft)
06/05/2026 02:00 12,5 °C 97 % 1008,0 hPa 0,6 mm 0,0 km/h (0 Bft) - - 0,00 h 0,000 mm 0 W/m² 12,0 °C 12,5 °C 0,0 km/h (0 Bft)
06/05/2026 03:00 12,2 °C 98 % 1007,1 hPa 1,8 mm 0,0 km/h (0 Bft) - - 0,00 h 0,000 mm 0 W/m² 11,8 °C 12,2 °C 0,0 km/h (0 Bft)
06/05/2026 04:00 11,8 °C 98 % 1007,6 hPa 5,4 mm 0,0 km/h (0 Bft) - - 0,00 h 0,000 mm 0 W/m² 11,5 °C 11,8 °C 0,0 km/h (0 Bft)
06/05/2026 05:00 11,7 °C 98 % 1007,1 hPa 0,4 mm 0,0 km/h (0 Bft) - - 0,00 h 0,000 mm 0 W/m² 11,4 °C 11,7 °C 0,0 km/h (0 Bft)
06/05/2026 06:00 11,5 °C 98 % 1006,8 hPa 0,0 mm 0,0 km/h (0 Bft) - - 0,00 h 0,000 mm 21 W/m² 11,2 °C 11,5 °C 0,0 km/h (0 Bft)
06/05/2026 07:00 12,1 °C 99 % 1007,1 hPa 0,0 mm 0,0 km/h (0 Bft) - - 0,00 h 0,000 mm 74 W/m² 12,0 °C 12,1 °C 0,0 km/h (0 Bft)
06/05/2026 08:00 13,2 °C 99 % 1007,7 hPa 0,0 mm 0,0 km/h (0 Bft) - - 0,03 h 0,025 mm 144 W/m² 13,0 °C 13,2 °C 0,0 km/h (0 Bft)
06/05/2026 09:00 14,7 °C 99 % 1007,8 hPa 0,0 mm 0,0 km/h (0 Bft) - - 0,50 h 0,076 mm 360 W/m² 14,5 °C 14,7 °C 0,0 km/h (0 Bft)
06/05/2026 10:00 17,1 °C 84 % 1007,8 hPa 0,0 mm 0,0 km/h (0 Bft) - - 1,00 h 0,203 mm 651 W/m² 14,3 °C 17,1 °C 0,0 km/h (0 Bft)
06/05/2026 11:00 19,1 °C 71 % 1007,9 hPa 0,0 mm 0,0 km/h (0 Bft) - - 1,00 h 0,356 mm 809 W/m² 13,7 °C 19,1 °C 0,0 km/h (0 Bft)
06/05/2026 12:00 20,5 °C 64 % 1007,8 hPa 0,0 mm 0,0 km/h (0 Bft) - - 1,00 h 0,432 mm 882 W/m² 13,5 °C 20,5 °C 0,0 km/h (0 Bft)
06/05/2026 13:00 21,1 °C 65 % 1007,4 hPa 0,0 mm 0,0 km/h (0 Bft) - - 0,88 h 0,508 mm 872 W/m² 14,3 °C 21,1 °C 0,0 km/h (0 Bft)
06/05/2026 14:00 21,5 °C 60 % 1006,8 hPa 0,0 mm 0,0 km/h (0 Bft) - - 1,00 h 0,508 mm 884 W/m² 13,3 °C 21,5 °C 0,0 km/h (0 Bft)
06/05/2026 15:00 22,6 °C 46 % 1006,3 hPa 0,0 mm 0,0 km/h (0 Bft) - - 1,00 h 0,508 mm 784 W/m² 10,5 °C 22,6 °C 0,0 km/h (0 Bft)
06/05/2026 16:00 22,4 °C 54 % 1005,9 hPa 0,0 mm 0,0 km/h (0 Bft) - - 1,00 h 0,483 mm 655 W/m² 12,5 °C 22,4 °C 0,0 km/h (0 Bft)
06/05/2026 17:00 21,5 °C 57 % 1005,9 hPa 0,0 mm 0,0 km/h (0 Bft) - - 1,00 h 0,406 mm 497 W/m² 12,5 °C 21,5 °C 0,0 km/h (0 Bft)
06/05/2026 18:00 21,4 °C 45 % 1006,1 hPa 0,0 mm 0,0 km/h (0 Bft) - - 0,92 h 0,305 mm 304 W/m² 8,8 °C 21,4 °C 0,0 km/h (0 Bft)
06/05/2026 19:00 19,9 °C 49 % 1006,1 hPa 0,0 mm 0,0 km/h (0 Bft) - - 0,00 h 0,178 mm 33 W/m² 8,8 °C 19,9 °C 0,0 km/h (0 Bft)
06/05/2026 20:00 18,3 °C 57 % 1006,7 hPa 0,0 mm 0,0 km/h (0 Bft) - - 0,00 h 0,025 mm 11 W/m² 9,6 °C 18,3 °C 0,0 km/h (0 Bft)
06/05/2026 21:00 16,7 °C 65 % 1007,3 hPa 0,0 mm 0,0 km/h (0 Bft) - - 0,00 h 0,025 mm 0 W/m² 10,0 °C 16,7 °C 0,0 km/h (0 Bft)
06/05/2026 22:00 15,6 °C 70 % 1008,2 hPa 0,0 mm 0,0 km/h (0 Bft) - - 0,00 h 0,000 mm 0 W/m² 10,1 °C 15,6 °C 0,0 km/h (0 Bft)
06/05/2026 23:00 14,7 °C 73 % 1008,6 hPa 0,0 mm 0,0 km/h (0 Bft) - - 0,00 h 0,025 mm 0 W/m² 10,0 °C 14,7 °C 0,0 km/h (0 Bft)
07/05/2026 00:00 14,1 °C 75 % 1008,9 hPa 0,0 mm 0,0 km/h (0 Bft) - - 0,00 h 0,025 mm 0 W/m² 9,7 °C 14,1 °C 0,0 km/h (0 Bft)
07/05/2026 01:00 13,7 °C 76 % 1009,0 hPa 0,0 mm 0,0 km/h (0 Bft) - - 0,00 h 0,025 mm 0 W/m² 9,5 °C 13,7 °C 0,0 km/h (0 Bft)
07/05/2026 02:00 13,1 °C 77 % 1009,0 hPa 0,0 mm 0,0 km/h (0 Bft) - - 0,00 h 0,025 mm 0 W/m² 9,2 °C 13,1 °C 0,0 km/h (0 Bft)
07/05/2026 03:00 12,5 °C 80 % 1009,0 hPa 0,0 mm 0,0 km/h (0 Bft) - - 0,00 h 0,025 mm 0 W/m² 9,1 °C 12,5 °C 0,0 km/h (0 Bft)
07/05/2026 04:00 11,7 °C 80 % 1009,2 hPa 0,0 mm 0,0 km/h (0 Bft) - - 0,00 h 0,025 mm 0 W/m² 8,3 °C 11,7 °C 0,0 km/h (0 Bft)
07/05/2026 05:00 11,4 °C 78 % 1009,2 hPa 0,0 mm 0,0 km/h (0 Bft) - - 0,00 h 0,025 mm 0 W/m² 7,8 °C 11,4 °C 0,0 km/h (0 Bft)
07/05/2026 06:00 11,1 °C 80 % 1009,6 hPa 0,0 mm 0,0 km/h (0 Bft) - - 0,00 h 0,000 mm 11 W/m² 7,8 °C 11,1 °C 0,0 km/h (0 Bft)
07/05/2026 07:00 11,7 °C 79 % 1010,1 hPa 0,0 mm 0,0 km/h (0 Bft) - - 0,00 h 0,000 mm 20 W/m² 8,3 °C 11,7 °C 0,0 km/h (0 Bft)
07/05/2026 08:00 13,3 °C 78 % 1010,8 hPa 0,0 mm 0,0 km/h (0 Bft) - - 0,08 h 0,025 mm 67 W/m² 9,6 °C 13,3 °C 0,0 km/h (0 Bft)
07/05/2026 09:00 16,4 °C 72 % 1011,5 hPa 0,0 mm 0,0 km/h (0 Bft) - - 1,00 h 0,051 mm 490 W/m² 11,3 °C 16,4 °C 0,0 km/h (0 Bft)
07/05/2026 10:00 19,3 °C 71 % 1011,6 hPa 0,0 mm 0,0 km/h (0 Bft) - - 0,77 h 0,254 mm 577 W/m² 13,9 °C 19,3 °C 0,0 km/h (0 Bft)
07/05/2026 11:00 20,7 °C 67 % 1011,8 hPa 0,0 mm 0,0 km/h (0 Bft) - - 0,97 h 0,330 mm 805 W/m² 14,3 °C 20,7 °C 0,0 km/h (0 Bft)
07/05/2026 12:00 21,9 °C 60 % 1011,9 hPa 0,0 mm 0,0 km/h (0 Bft) - - 1,00 h 0,457 mm 856 W/m² 13,6 °C 21,9 °C 0,0 km/h (0 Bft)
07/05/2026 13:00 21,9 °C 55 % 1011,6 hPa 0,0 mm 0,0 km/h (0 Bft) - - 1,00 h 0,508 mm 881 W/m² 12,4 °C 21,9 °C 0,0 km/h (0 Bft)
07/05/2026 14:00 22,4 °C 53 % 1011,7 hPa 0,0 mm 0,0 km/h (0 Bft) - - 1,00 h 0,533 mm 849 W/m² 12,2 °C 22,4 °C 0,0 km/h (0 Bft)
07/05/2026 15:00 22,6 °C 58 % 1011,7 hPa 0,0 mm 0,0 km/h (0 Bft) - - 1,00 h 0,508 mm 786 W/m² 13,9 °C 22,6 °C 0,0 km/h (0 Bft)
07/05/2026 16:00 22,5 °C 54 % 1011,4 hPa 0,0 mm 0,0 km/h (0 Bft) - - 1,00 h 0,457 mm 671 W/m² 12,7 °C 22,5 °C 0,0 km/h (0 Bft)
07/05/2026 17:00 21,4 °C 59 % 1011,3 hPa 0,0 mm 0,0 km/h (0 Bft) - - 1,00 h 0,406 mm 442 W/m² 12,9 °C 21,4 °C 0,0 km/h (0 Bft)
07/05/2026 18:00 19,8 °C 69 % 1011,5 hPa 0,0 mm 0,0 km/h (0 Bft) - - 0,58 h 0,254 mm 233 W/m² 13,9 °C 19,8 °C 0,0 km/h (0 Bft)
07/05/2026 19:00 17,7 °C 75 % 1011,5 hPa 0,0 mm 0,0 km/h (0 Bft) - - 0,00 h 0,127 mm 43 W/m² 13,3 °C 17,7 °C 0,0 km/h (0 Bft)
07/05/2026 20:00 16,2 °C 80 % 1011,9 hPa 0,0 mm 0,0 km/h (0 Bft) - - 0,00 h 0,025 mm 14 W/m² 12,8 °C 16,2 °C 0,0 km/h (0 Bft)
07/05/2026 21:00 14,7 °C 85 % 1012,2 hPa 0,0 mm 0,0 km/h (0 Bft) - - 0,00 h 0,000 mm 0 W/m² 12,2 °C 14,7 °C 0,0 km/h (0 Bft)
07/05/2026 22:00 13,7 °C 87 % 1012,4 hPa 0,0 mm 0,0 km/h (0 Bft) - - 0,00 h 0,000 mm 0 W/m² 11,7 °C 13,7 °C 0,0 km/h (0 Bft)
07/05/2026 23:00 13,1 °C 89 % 1012,7 hPa 0,0 mm 0,0 km/h (0 Bft) - - 0,00 h 0,000 mm 0 W/m² 11,4 °C 13,1 °C 0,0 km/h (0 Bft)
08/05/2026 00:00 12,8 °C 90 % 1012,8 hPa 0,0 mm 0,0 km/h (0 Bft) - - 0,00 h 0,000 mm 0 W/m² 11,2 °C 12,8 °C 0,0 km/h (0 Bft)
08/05/2026 01:00 12,4 °C 90 % 1012,7 hPa 0,0 mm 0,0 km/h (0 Bft) - - 0,00 h 0,000 mm 0 W/m² 10,8 °C 12,4 °C 0,0 km/h (0 Bft)
08/05/2026 02:00 12,0 °C 89 % 1012,1 hPa 0,0 mm 0,0 km/h (0 Bft) - - 0,00 h 0,000 mm 0 W/m² 10,3 °C 12,0 °C 0,0 km/h (0 Bft)
08/05/2026 03:00 11,7 °C 90 % 1011,7 hPa 0,0 mm 0,0 km/h (0 Bft) - - 0,00 h 0,000 mm 0 W/m² 10,1 °C 11,7 °C 0,0 km/h (0 Bft)
08/05/2026 04:00 11,4 °C 90 % 1011,4 hPa 0,0 mm 0,0 km/h (0 Bft) - - 0,00 h 0,000 mm 0 W/m² 9,7 °C 11,4 °C 0,0 km/h (0 Bft)
08/05/2026 05:00 11,7 °C 88 % 1011,5 hPa 0,0 mm 0,0 km/h (0 Bft) - - 0,00 h 0,000 mm 0 W/m² 9,9 °C 11,7 °C 0,0 km/h (0 Bft)
08/05/2026 06:00 12,0 °C 85 % 1011,7 hPa 0,0 mm 0,0 km/h (0 Bft) - - 0,00 h 0,000 mm 14 W/m² 9,5 °C 12,0 °C 0,0 km/h (0 Bft)
08/05/2026 07:00 12,1 °C 87 % 1012,2 hPa 0,0 mm 0,0 km/h (0 Bft) - - 0,00 h 0,000 mm 70 W/m² 10,0 °C 12,1 °C 0,0 km/h (0 Bft)
08/05/2026 08:00 13,7 °C 87 % 1012,4 hPa 0,0 mm 0,0 km/h (0 Bft) - - 0,00 h 0,025 mm 163 W/m² 11,6 °C 13,7 °C 0,0 km/h (0 Bft)
08/05/2026 09:00 16,3 °C 79 % 1012,6 hPa 0,0 mm 0,0 km/h (0 Bft) - - 0,42 h 0,076 mm 311 W/m² 12,7 °C 16,3 °C 0,0 km/h (0 Bft)
08/05/2026 10:00 19,5 °C 69 % 1013,0 hPa 0,0 mm 0,0 km/h (0 Bft) - - 0,77 h 0,178 mm 545 W/m² 13,7 °C 19,5 °C 0,0 km/h (0 Bft)
08/05/2026 11:00 22,6 °C 56 % 1013,1 hPa 0,0 mm 0,0 km/h (0 Bft) - - 0,78 h 0,305 mm 665 W/m² 13,3 °C 22,6 °C 0,0 km/h (0 Bft)
08/05/2026 12:00 24,3 °C 50 % 1013,1 hPa 0,0 mm 0,0 km/h (0 Bft) - - 1,00 h 0,406 mm 879 W/m² 13,3 °C 24,3 °C 0,0 km/h (0 Bft)
08/05/2026 13:00 24,5 °C 46 % 1013,1 hPa 0,0 mm 0,0 km/h (0 Bft) - - 1,00 h 0,533 mm 911 W/m² 12,1 °C 24,5 °C 0,0 km/h (0 Bft)
08/05/2026 14:00 25,0 °C 45 % 1013,2 hPa 0,0 mm 0,0 km/h (0 Bft) - - 1,00 h 0,559 mm 875 W/m² 12,3 °C 25,0 °C 0,0 km/h (0 Bft)
08/05/2026 15:00 25,1 °C 45 % 1013,2 hPa 0,0 mm 0,0 km/h (0 Bft) - - 1,00 h 0,559 mm 790 W/m² 12,3 °C 25,1 °C 0,0 km/h (0 Bft)
08/05/2026 16:00 24,6 °C 45 % 1013,3 hPa 0,0 mm 0,0 km/h (0 Bft) - - 1,00 h 0,508 mm 622 W/m² 12,0 °C 24,6 °C 0,0 km/h (0 Bft)
08/05/2026 17:00 23,7 °C 47 % 1013,3 hPa 0,0 mm 0,0 km/h (0 Bft) - - 0,82 h 0,381 mm 425 W/m² 11,8 °C 23,7 °C 0,0 km/h (0 Bft)
08/05/2026 18:00 21,9 °C 53 % 1013,4 hPa 0,0 mm 0,0 km/h (0 Bft) - - 0,40 h 0,254 mm 216 W/m² 11,9 °C 21,9 °C 0,0 km/h (0 Bft)
08/05/2026 19:00 20,1 °C 59 % 1013,5 hPa 0,0 mm 0,0 km/h (0 Bft) - - 0,00 h 0,127 mm 72 W/m² 11,9 °C 20,1 °C 0,0 km/h (0 Bft)
08/05/2026 20:00 18,2 °C 65 % 1013,7 hPa 0,0 mm 0,0 km/h (0 Bft) - - 0,00 h 0,051 mm 20 W/m² 11,6 °C 18,2 °C 0,0 km/h (0 Bft)
08/05/2026 21:00 16,9 °C 69 % 1014,3 hPa 0,0 mm 0,0 km/h (0 Bft) - - 0,00 h 0,025 mm 0 W/m² 11,3 °C 16,9 °C 0,0 km/h (0 Bft)
08/05/2026 22:00 16,3 °C 71 % 1014,8 hPa 0,0 mm 0,0 km/h (0 Bft) - - 0,00 h 0,000 mm 0 W/m² 11,1 °C 16,3 °C 0,0 km/h (0 Bft)
08/05/2026 23:00 15,5 °C 72 % 1014,9 hPa 0,0 mm 0,0 km/h (0 Bft) - - 0,00 h 0,025 mm 0 W/m² 10,5 °C 15,5 °C 0,0 km/h (0 Bft)
09/05/2026 00:00 14,7 °C 74 % 1015,3 hPa 0,0 mm 0,0 km/h (0 Bft) - - 0,00 h 0,025 mm 0 W/m² 10,2 °C 14,7 °C 0,0 km/h (0 Bft)
09/05/2026 01:00 14,3 °C 75 % 1015,2 hPa 0,0 mm 0,0 km/h (0 Bft) - - 0,00 h 0,025 mm 0 W/m² 9,9 °C 14,3 °C 0,0 km/h (0 Bft)
09/05/2026 02:00 14,2 °C 75 % 1015,1 hPa 0,0 mm 0,0 km/h (0 Bft) - - 0,00 h 0,025 mm 0 W/m² 9,8 °C 14,2 °C 0,0 km/h (0 Bft)
09/05/2026 03:00 13,9 °C 75 % 1014,9 hPa 0,0 mm 0,0 km/h (0 Bft) - - 0,00 h 0,025 mm 0 W/m² 9,5 °C 13,9 °C 0,0 km/h (0 Bft)
09/05/2026 04:00 13,6 °C 75 % 1014,9 hPa 0,0 mm 0,0 km/h (0 Bft) - - 0,00 h 0,025 mm 0 W/m² 9,3 °C 13,6 °C 0,0 km/h (0 Bft)
09/05/2026 05:00 13,3 °C 76 % 1014,9 hPa 0,0 mm 0,0 km/h (0 Bft) - - 0,00 h 0,025 mm 0 W/m² 9,1 °C 13,3 °C 0,0 km/h (0 Bft)
09/05/2026 06:00 13,3 °C 76 % 1014,8 hPa 0,0 mm 0,0 km/h (0 Bft) - - 0,02 h 0,000 mm 13 W/m² 9,3 °C 13,3 °C 0,0 km/h (0 Bft)
09/05/2026 07:00 14,0 °C 79 % 1015,0 hPa 0,0 mm 0,0 km/h (0 Bft) - - 0,00 h 0,000 mm 37 W/m² 10,3 °C 14,0 °C 0,0 km/h (0 Bft)
09/05/2026 08:00 15,7 °C 77 % 1015,2 hPa 0,0 mm 0,0 km/h (0 Bft) - - 0,17 h 0,025 mm 102 W/m² 11,8 °C 15,7 °C 0,0 km/h (0 Bft)
09/05/2026 09:00 19,4 °C 68 % 1015,1 hPa 0,0 mm 0,0 km/h (0 Bft) - - 1,00 h 0,051 mm 466 W/m² 13,3 °C 19,4 °C 0,0 km/h (0 Bft)
09/05/2026 10:00 22,8 °C 54 % 1015,0 hPa 0,0 mm 0,0 km/h (0 Bft) - - 1,00 h 0,279 mm 631 W/m² 12,9 °C 22,8 °C 0,0 km/h (0 Bft)
09/05/2026 11:00 23,4 °C 54 % 1015,5 hPa 0,0 mm 0,0 km/h (0 Bft) - - 1,00 h 0,381 mm 737 W/m² 13,4 °C 23,4 °C 0,0 km/h (0 Bft)
09/05/2026 12:00 24,0 °C 55 % 1015,5 hPa 0,0 mm 0,0 km/h (0 Bft) - - 0,23 h 0,457 mm 731 W/m² 14,3 °C 24,0 °C 0,0 km/h (0 Bft)
Min-Date _ 07/05/26 06/05/26 06/05/26 - 04/05/26 - - - - 07/05/26 07/05/26 04/05/26
_ Min-Heure 06:19 15:58 16:00 - 00:00 - - - - 05:47 06:19 00:00
Minimum _ 11,0 °C 43 % 1005,9 hPa - 0,0 km/h (0 Bft) - - - - 7,6 °C 11,0 °C 0,0 km/h (0 Bft)
Max-Date _ 08/05/26 05/05/26 04/05/26 06/05/26 04/05/26 - 04/05/26 08/05/26 06/05/26 05/05/26 08/05/26 08/05/26
_ Max-Heure 15:08 11:44 01:00 00:47 00:00 - 12:14 14:00 13:17 14:15 15:08 23:00
Maximum _ 25,4 °C 100 % 1017,0 hPa 9,0 mm 0,0 km/h
- - (0 Bft)
- 0,02 h 0,559 mm 1074 W/m² 17,5 °C 25,4 °C 1,6 km/h
- - (1 Bft)
Moyenne _ 16,4 °C 78 % 1011,8 hPa #39,6 mm 0,0 km/h (0 Bft) - - #34:54 h #16,930 mm 355 W/m² 12,2 °C 16,4 °C 0,0 km/h (0 Bft)
Roquefort les pins